Time;durP1;ratioP1;P1;durP2;ratioP2;P2;SDS_P1;SDS_P2;PMS_P1;PMS_P2;Temp;Humidity;BMP_temperature;BMP_pressure;BME280_temperature;BME280_humidity;BME280_pressure;Samples;Min_cycle;Max_cycle;Signal;HPM_P1;HPM_P2
2023/03/12 00:02:17;;;;;;;9.25;3.13;;;;;;;;;;4959302;28;20053;-73
2023/03/12 00:04:47;;;;;;;7.65;3.28;;;;;;;;;;4955173;28;20076;-71
2023/03/12 00:07:15;;;;;;;7.57;2.80;;;;;;;;;;5019130;28;20053;-72
2023/03/12 00:09:42;;;;;;;;;;;;;;;;;;5007712;28;20202;-72
2023/03/12 00:12:13;;;;;;;7.43;2.78;;;;;;;;;;4997372;28;19933;-72
2023/03/12 00:14:42;;;;;;;6.63;3.00;;;;;;;;;;4970648;28;20108;-73
2023/03/12 00:17:09;;;;;;;7.72;3.08;;;;;;;;;;4992394;28;20059;-73
2023/03/12 00:19:39;;;;;;;6.97;2.92;;;;;;;;;;4953210;28;20062;-72
2023/03/12 00:22:06;;;;;;;7.20;3.10;;;;;;;;;;4958838;28;20046;-72
2023/03/12 00:24:43;;;;;;;6.78;2.50;;;;;;;;;;4905182;28;20085;-72
2023/03/12 00:27:09;;;;;;;6.68;2.63;;;;;;;;;;4973268;28;20062;-72
2023/03/12 00:29:36;;;;;;;7.75;3.05;;;;;;;;;;4988612;28;20053;-70
2023/03/12 00:32:08;;;;;;;7.30;2.95;;;;;;;;;;5006803;28;20057;-71
2023/03/12 00:34:38;;;;;;;8.35;3.10;;;;;;;;;;4913736;28;20055;-72
2023/03/12 00:37:10;;;;;;;9.68;3.08;;;;;;;;;;4914938;29;20058;-71
2023/03/12 00:39:41;;;;;;;7.60;2.60;;;;;;;;;;4906427;28;20094;-72
2023/03/12 00:42:09;;;;;;;7.82;2.55;;;;;;;;;;4926342;28;20058;-72
2023/03/12 00:44:36;;;;;;;8.07;2.90;;;;;;;;;;4958968;28;20057;-71
2023/03/12 00:47:04;;;;;;;6.82;3.03;;;;;;;;;;4997671;28;20356;-71
2023/03/12 00:49:31;;;;;;;;;;;;;;;;;;5001216;28;20049;-72
2023/03/12 00:51:57;;;;;;;5.88;2.38;;;;;;;;;;5018498;28;19996;-71
2023/03/12 00:54:24;;;;;;;5.90;2.58;;;;;;;;;;4961755;28;20163;-70
2023/03/12 00:56:51;;;;;;;8.07;2.78;;;;;;;;;;4995528;28;20148;-71
2023/03/12 00:59:18;;;;;;;5.32;2.42;;;;;;;;;;4979941;28;20053;-71
2023/03/12 01:01:45;;;;;;;6.30;2.70;;;;;;;;;;4981578;28;20049;-71
2023/03/12 01:04:24;;;;;;;8.82;2.67;;;;;;;;;;4923969;28;20099;-71
2023/03/12 01:06:51;;;;;;;7.25;2.65;;;;;;;;;;4974131;28;20377;-71
2023/03/12 01:09:23;;;;;;;8.07;2.47;;;;;;;;;;4987412;28;20072;-70
2023/03/12 01:11:54;;;;;;;8.52;2.60;;;;;;;;;;4967372;28;20318;-72
2023/03/12 01:14:21;;;;;;;5.25;2.20;;;;;;;;;;4951114;28;20057;-74
2023/03/12 01:16:51;;;;;;;8.40;2.60;;;;;;;;;;4991615;28;20378;-71
2023/03/12 01:19:20;;;;;;;4.78;2.20;;;;;;;;;;4985774;28;20097;-71
2023/03/12 01:21:49;;;;;;;6.28;2.55;;;;;;;;;;4983620;28;20057;-71
2023/03/12 01:24:16;;;;;;;7.22;2.92;;;;;;;;;;4898652;28;20145;-72
2023/03/12 01:26:50;;;;;;;5.38;2.53;;;;;;;;;;4889908;28;20067;-71
2023/03/12 01:29:35;;;;;;;7.28;2.45;;;;;;;;;;4959498;28;20062;-71
2023/03/12 01:32:04;;;;;;;6.38;2.15;;;;;;;;;;4977234;28;20061;-72
2023/03/12 01:34:34;;;;;;;5.90;2.50;;;;;;;;;;4956158;28;20057;-71
2023/03/12 01:37:02;;;;;;;6.05;2.33;;;;;;;;;;5013864;28;20153;-70
2023/03/12 01:39:30;;;;;;;4.82;2.10;;;;;;;;;;4983221;28;20141;-72
2023/03/12 01:42:03;;;;;;;5.95;2.28;;;;;;;;;;4987208;28;20065;-71
2023/03/12 01:44:30;;;;;;;5.45;2.20;;;;;;;;;;4964586;28;20184;-71
2023/03/12 01:46:58;;;;;;;6.25;2.42;;;;;;;;;;4983237;28;20061;-71
2023/03/12 01:49:27;;;;;;;5.90;2.03;;;;;;;;;;4974585;28;20266;-71
2023/03/12 01:51:58;;;;;;;5.28;2.10;;;;;;;;;;4988194;28;20105;-71
2023/03/12 01:54:26;;;;;;;4.93;2.17;;;;;;;;;;4964161;28;20128;-71
2023/03/12 01:56:56;;;;;;;4.57;1.95;;;;;;;;;;4986622;28;20045;-73
2023/03/12 01:59:29;;;;;;;6.32;2.47;;;;;;;;;;4956391;28;20078;-73
2023/03/12 02:01:57;;;;;;;6.38;2.20;;;;;;;;;;4920067;28;20165;-73
2023/03/12 02:04:25;;;;;;;7.00;2.15;;;;;;;;;;4893441;28;20134;-73
2023/03/12 02:06:54;;;;;;;5.57;2.13;;;;;;;;;;4909920;28;20059;-73
2023/03/12 02:09:31;;;;;;;5.60;1.98;;;;;;;;;;4945429;28;20145;-74
2023/03/12 02:12:03;;;;;;;4.47;2.10;;;;;;;;;;4946904;28;20063;-74
2023/03/12 02:14:33;;;;;;;5.13;2.05;;;;;;;;;;4897648;28;20086;-72
2023/03/12 02:17:02;;;;;;;3.95;1.80;;;;;;;;;;4964972;28;20089;-73
2023/03/12 02:19:32;;;;;;;3.97;1.90;;;;;;;;;;4950037;28;20058;-74
2023/03/12 02:21:59;;;;;;;3.72;1.85;;;;;;;;;;4886057;28;20062;-73
2023/03/12 02:24:32;;;;;;;3.97;1.90;;;;;;;;;;4859219;29;20060;-73
2023/03/12 02:27:01;;;;;;;4.47;2.00;;;;;;;;;;4884290;28;20058;-71
2023/03/12 02:29:29;;;;;;;11.35;2.17;;;;;;;;;;4947568;28;20069;-71
2023/03/12 02:37:10;;;;;;;4.93;1.92;;;;;;;;;;5556131;22;19925;-72
2023/03/12 02:39:39;;;;;;;4.05;1.85;;;;;;;;;;4888698;28;20063;-75
2023/03/12 02:42:10;;;;;;;4.22;1.85;;;;;;;;;;4824015;29;20053;-75
2023/03/12 02:47:02;;;;;;;3.70;1.80;;;;;;;;;;4777335;29;20073;-74
2023/03/12 02:49:32;;;;;;;3.75;1.67;;;;;;;;;;4855339;29;20048;-74
2023/03/12 02:54:40;;;;;;;3.60;1.65;;;;;;;;;;4796536;29;20053;-68
2023/03/12 02:57:10;;;;;;;4.35;1.90;;;;;;;;;;4884794;29;20051;-73
2023/03/12 02:59:47;;;;;;;5.45;1.67;;;;;;;;;;4934811;28;20053;-71
2023/03/12 03:02:14;;;;;;;5.90;1.45;;;;;;;;;;4950070;28;20053;-74
2023/03/12 03:04:41;;;;;;;6.55;2.03;;;;;;;;;;4867000;28;20046;-74
2023/03/12 03:07:09;;;;;;;5.38;1.67;;;;;;;;;;4889357;28;20047;-78
2023/03/12 03:09:36;;;;;;;;;;;;;;;;;;4967082;28;20112;-74
2023/03/12 03:12:03;;;;;;;3.40;1.45;;;;;;;;;;4969603;28;19937;-74
2023/03/12 03:14:33;;;;;;;4.15;1.52;;;;;;;;;;4967650;28;20053;-74
2023/03/12 03:17:00;;;;;;;2.78;1.52;;;;;;;;;;4874639;28;20115;-69
2023/03/12 03:27:01;;;;;;;4.60;1.80;;;;;;;;;;5016408;27;20466;-74
2023/03/12 03:29:29;;;;;;;3.45;1.45;;;;;;;;;;4985102;28;20255;-74
2023/03/12 03:32:13;;;;;;;5.90;1.63;;;;;;;;;;4965963;28;20053;-68
2023/03/12 03:37:23;;;;;;;4.35;1.65;;;;;;;;;;4955502;27;20816;-71
2023/03/12 03:42:15;;;;;;;5.43;1.60;;;;;;;;;;4864634;29;20138;-71
2023/03/12 03:44:42;;;;;;;5.60;1.65;;;;;;;;;;4929168;28;21678;-71
2023/03/12 03:47:08;;;;;;;4.53;1.63;;;;;;;;;;4967283;28;20122;-71
2023/03/12 03:49:35;;;;;;;5.53;1.83;;;;;;;;;;4989344;28;20062;-72
2023/03/12 03:52:02;;;;;;;3.63;1.50;;;;;;;;;;4993144;28;20144;-71
2023/03/12 03:54:32;;;;;;;2.55;1.42;;;;;;;;;;4986088;28;20390;-71
2023/03/12 03:56:59;;;;;;;3.42;1.60;;;;;;;;;;4970541;28;20144;-71
2023/03/12 03:59:26;;;;;;;6.18;2.08;;;;;;;;;;4983827;28;20224;-71
2023/03/12 04:01:56;;;;;;;5.80;1.60;;;;;;;;;;4965222;28;20058;-72
2023/03/12 04:04:23;;;;;;;3.30;2.05;;;;;;;;;;4982312;28;20457;-72
2023/03/12 04:06:49;;;;;;;4.22;1.77;;;;;;;;;;4977473;28;20054;-72
2023/03/12 04:09:16;;;;;;;4.43;1.63;;;;;;;;;;4951821;28;20050;-71
2023/03/12 04:11:45;;;;;;;3.95;1.50;;;;;;;;;;4954481;28;20069;-71
2023/03/12 04:14:12;;;;;;;4.72;1.50;;;;;;;;;;4980588;28;20050;-72
2023/03/12 04:16:38;;;;;;;4.38;1.55;;;;;;;;;;4951328;28;21407;-72
2023/03/12 04:19:05;;;;;;;3.25;1.70;;;;;;;;;;4932844;28;20053;-72
2023/03/12 04:21:32;;;;;;;3.72;1.45;;;;;;;;;;4970346;28;20058;-72
2023/03/12 04:23:59;;;;;;;5.97;1.75;;;;;;;;;;4964331;28;20050;-71
2023/03/12 04:26:25;;;;;;;3.88;1.65;;;;;;;;;;4933418;28;20062;-71
2023/03/12 04:28:56;;;;;;;7.57;2.20;;;;;;;;;;4944885;28;20556;-72
2023/03/12 04:31:22;;;;;;;4.10;1.65;;;;;;;;;;4967674;28;20073;-71
2023/03/12 04:33:49;;;;;;;4.10;1.75;;;;;;;;;;4948479;28;20058;-70
2023/03/12 04:36:16;;;;;;;3.85;1.70;;;;;;;;;;4932123;28;20111;-72
2023/03/12 04:38:43;;;;;;;5.78;1.80;;;;;;;;;;4961016;28;20054;-71
2023/03/12 04:41:11;;;;;;;4.03;1.80;;;;;;;;;;4975915;28;20176;-71
2023/03/12 04:43:38;;;;;;;3.88;1.70;;;;;;;;;;4986229;28;20068;-71
2023/03/12 04:46:07;;;;;;;4.72;1.45;;;;;;;;;;4947554;28;20062;-71
2023/03/12 04:48:34;;;;;;;4.00;1.50;;;;;;;;;;4963478;28;20063;-71
2023/03/12 04:51:03;;;;;;;3.53;1.50;;;;;;;;;;4948931;28;20112;-70
2023/03/12 04:53:30;;;;;;;7.18;1.80;;;;;;;;;;4938187;28;20110;-72
2023/03/12 04:55:58;;;;;;;3.78;1.52;;;;;;;;;;4922595;28;20058;-71
2023/03/12 04:58:25;;;;;;;3.50;1.58;;;;;;;;;;4934301;28;20061;-71
2023/03/12 05:00:51;;;;;;;5.47;1.98;;;;;;;;;;4958626;28;20078;-71
2023/03/12 05:03:20;;;;;;;4.82;2.03;;;;;;;;;;4931085;28;20136;-71
2023/03/12 05:05:48;;;;;;;4.10;1.77;;;;;;;;;;4954214;28;20057;-72
2023/03/12 05:08:15;;;;;;;4.03;1.58;;;;;;;;;;4963864;28;20125;-71
2023/03/12 05:10:44;;;;;;;6.10;1.58;;;;;;;;;;4950361;28;20090;-71
2023/03/12 05:13:10;;;;;;;;;;;;;;;;;;4945928;28;20046;-71
2023/03/12 05:15:37;;;;;;;3.30;1.50;;;;;;;;;;4920219;28;19926;-71
2023/03/12 05:18:04;;;;;;;5.43;1.75;;;;;;;;;;4914066;28;20129;-72
2023/03/12 05:20:32;;;;;;;7.07;1.73;;;;;;;;;;4967193;28;20081;-72
2023/03/12 05:22:59;;;;;;;3.92;1.75;;;;;;;;;;4975144;28;20062;-71
2023/03/12 05:25:26;;;;;;;4.03;1.67;;;;;;;;;;4964591;28;20064;-72
2023/03/12 05:27:56;;;;;;;4.85;1.90;;;;;;;;;;4951178;28;20073;-71
2023/03/12 05:30:25;;;;;;;3.58;1.63;;;;;;;;;;4953639;28;20148;-71
2023/03/12 05:32:51;;;;;;;4.63;1.80;;;;;;;;;;4938853;28;20063;-71
2023/03/12 05:35:18;;;;;;;6.75;1.88;;;;;;;;;;4941384;28;20145;-71
2023/03/12 05:37:50;;;;;;;3.92;1.70;;;;;;;;;;4938264;28;20065;-70
2023/03/12 05:40:16;;;;;;;5.75;1.80;;;;;;;;;;4965854;28;20088;-71
2023/03/12 05:42:43;;;;;;;3.63;1.55;;;;;;;;;;4958071;28;20060;-72
2023/03/12 05:45:10;;;;;;;5.05;2.05;;;;;;;;;;4956396;28;20241;-71
2023/03/12 05:47:37;;;;;;;5.47;1.88;;;;;;;;;;4883740;28;20064;-71
2023/03/12 05:50:08;;;;;;;4.05;1.90;;;;;;;;;;4965086;28;20057;-71
2023/03/12 05:52:35;;;;;;;8.35;1.90;;;;;;;;;;4976081;28;20054;-71
2023/03/12 05:55:06;;;;;;;4.47;1.80;;;;;;;;;;4952284;28;20225;-71
2023/03/12 05:57:33;;;;;;;4.32;1.80;;;;;;;;;;4957726;28;20081;-71
2023/03/12 06:00:00;;;;;;;3.20;1.50;;;;;;;;;;4948892;28;20149;-71
2023/03/12 06:02:27;;;;;;;3.80;1.83;;;;;;;;;;4923759;28;20062;-72
2023/03/12 06:05:01;;;;;;;4.15;1.75;;;;;;;;;;4891050;28;20146;-72
2023/03/12 06:17:39;;;;;;;7.07;1.73;;;;;;;;;;5012489;27;20407;-72
2023/03/12 06:20:09;;;;;;;3.60;1.52;;;;;;;;;;4969075;28;20054;-72
2023/03/12 06:22:36;;;;;;;3.42;1.65;;;;;;;;;;4962824;28;20054;-72
2023/03/12 06:25:06;;;;;;;4.38;1.75;;;;;;;;;;4950996;28;20054;-70
2023/03/12 06:27:39;;;;;;;4.82;1.88;;;;;;;;;;4854069;28;20234;-72
2023/03/12 06:30:09;;;;;;;5.70;2.17;;;;;;;;;;4962637;28;20141;-70
2023/03/12 06:32:46;;;;;;;6.20;1.90;;;;;;;;;;5010921;28;20228;-71
2023/03/12 06:35:15;;;;;;;6.65;2.17;;;;;;;;;;5004009;28;20057;-71
2023/03/12 06:37:42;;;;;;;7.13;1.80;;;;;;;;;;5008426;28;20143;-72
2023/03/12 06:40:13;;;;;;;3.90;1.70;;;;;;;;;;4936350;28;20058;-70
2023/03/12 06:50:48;;;;;;;4.55;1.73;;;;;;;;;;5072115;27;20265;-68
2023/03/12 06:53:34;;;;;;;6.43;2.08;;;;;;;;;;4941815;28;20343;-72
2023/03/12 06:58:45;;;;;;;3.80;1.80;;;;;;;;;;4971496;28;20455;-70
2023/03/12 07:01:15;;;;;;;4.30;1.83;;;;;;;;;;4915602;28;20298;-71
2023/03/12 07:03:42;;;;;;;5.72;2.15;;;;;;;;;;4978298;28;20061;-70
2023/03/12 07:06:13;;;;;;;8.00;1.80;;;;;;;;;;5050292;28;20080;-69
2023/03/12 07:08:39;;;;;;;3.60;1.52;;;;;;;;;;5023688;28;20069;-71
2023/03/12 07:11:06;;;;;;;6.70;1.98;;;;;;;;;;5066301;28;20056;-71
2023/03/12 07:13:33;;;;;;;4.38;1.80;;;;;;;;;;5042566;28;20193;-70
2023/03/12 07:16:01;;;;;;;5.65;1.80;;;;;;;;;;5018224;28;20131;-70
2023/03/12 07:18:28;;;;;;;4.30;1.85;;;;;;;;;;4997856;28;20065;-71
2023/03/12 07:20:59;;;;;;;7.50;1.85;;;;;;;;;;5027958;28;20063;-70
2023/03/12 07:23:27;;;;;;;4.63;1.80;;;;;;;;;;5031014;28;21062;-70
2023/03/12 07:26:04;;;;;;;3.78;1.70;;;;;;;;;;5014089;28;20053;-71
2023/03/12 07:28:34;;;;;;;4.15;1.67;;;;;;;;;;4989448;28;20068;-69
2023/03/12 07:31:10;;;;;;;3.67;1.83;;;;;;;;;;4987385;28;20069;-70
2023/03/12 07:33:37;;;;;;;5.82;2.30;;;;;;;;;;5052775;28;20084;-71
2023/03/12 07:36:04;;;;;;;4.50;1.83;;;;;;;;;;5042222;28;20079;-69
2023/03/12 07:38:31;;;;;;;5.63;2.03;;;;;;;;;;5011441;28;20051;-71
2023/03/12 07:41:01;;;;;;;4.22;1.60;;;;;;;;;;5044482;28;20059;-71
2023/03/12 07:43:28;;;;;;;7.70;2.05;;;;;;;;;;5021569;28;20079;-72
2023/03/12 07:45:55;;;;;;;3.80;1.75;;;;;;;;;;5008506;28;20060;-71
2023/03/12 07:48:23;;;;;;;3.95;1.88;;;;;;;;;;5020555;28;20053;-71
2023/03/12 07:50:50;;;;;;;3.92;1.80;;;;;;;;;;5025325;28;20060;-72
2023/03/12 07:53:17;;;;;;;3.65;1.70;;;;;;;;;;5048530;28;20151;-70
2023/03/12 07:55:44;;;;;;;4.72;1.80;;;;;;;;;;5072241;28;20052;-70
2023/03/12 07:58:14;;;;;;;3.17;1.75;;;;;;;;;;4974959;28;20111;-71
2023/03/12 08:00:41;;;;;;;8.32;2.92;;;;;;;;;;5008604;28;20110;-72
2023/03/12 08:03:08;;;;;;;4.20;2.00;;;;;;;;;;5002516;28;20053;-71
2023/03/12 08:05:37;;;;;;;4.78;1.90;;;;;;;;;;4958521;28;20057;-71
2023/03/12 08:23:11;;;;;;;5.13;1.90;;;;;;;;;;5039651;27;20371;-69
2023/03/12 08:25:41;;;;;;;5.13;2.25;;;;;;;;;;4997616;28;20070;-76
2023/03/12 08:28:14;;;;;;;7.65;2.15;;;;;;;;;;4943441;28;20049;-77
2023/03/12 08:30:45;;;;;;;7.53;2.05;;;;;;;;;;4984805;28;20049;-73
2023/03/12 08:33:15;;;;;;;3.65;1.73;;;;;;;;;;4960772;28;20055;-72
2023/03/12 08:35:43;;;;;;;6.28;2.25;;;;;;;;;;4975367;28;20054;-71
2023/03/12 08:41:03;;;;;;;4.68;1.98;;;;;;;;;;4995949;28;20428;-73
2023/03/12 08:43:34;;;;;;;5.93;2.05;;;;;;;;;;4937026;28;20088;-73
2023/03/12 08:46:13;;;;;;;6.35;2.00;;;;;;;;;;4864127;29;20068;-71
2023/03/12 08:48:42;;;;;;;4.32;2.03;;;;;;;;;;4815674;29;20060;-71
2023/03/12 08:53:52;;;;;;;4.18;1.42;;;;;;;;;;4791458;29;19942;-72
2023/03/12 09:01:47;;;;;;;4.50;2.05;;;;;;;;;;4987541;27;20450;-75
2023/03/12 09:13:04;;;;;;;5.13;2.20;;;;;;;;;;5024190;27;20776;-68
2023/03/12 09:16:00;;;;;;;7.25;2.28;;;;;;;;;;4963326;28;20054;-72
2023/03/12 09:21:26;;;;;;;6.40;2.13;;;;;;;;;;4959881;27;20569;-74
2023/03/12 09:23:55;;;;;;;;;;;;;;;;;;4906493;28;20166;-73
2023/03/12 09:26:24;;;;;;;4.93;1.92;;;;;;;;;;4917710;28;20400;-72
2023/03/12 09:28:56;;;;;;;6.82;1.88;;;;;;;;;;4901963;28;20109;-71
2023/03/12 09:36:29;;;;;;;4.50;2.25;;;;;;;;;;5003447;27;20509;-72
2023/03/12 09:39:02;;;;;;;5.28;2.40;;;;;;;;;;4935485;28;20057;-74
2023/03/12 09:41:32;;;;;;;5.53;2.53;;;;;;;;;;4937772;28;20119;-72
2023/03/12 09:44:02;;;;;;;7.63;2.30;;;;;;;;;;4928964;28;20048;-73
2023/03/12 09:54:07;;;;;;;7.65;2.60;;;;;;;;;;5058740;27;20419;-73
2023/03/12 09:56:44;;;;;;;5.18;2.22;;;;;;;;;;5013257;28;20106;-71
2023/03/12 09:59:18;;;;;;;6.95;2.75;;;;;;;;;;4942040;28;20065;-72
2023/03/12 10:04:18;;;;;;;5.20;2.50;;;;;;;;;;4962641;28;20054;-72
2023/03/12 10:06:51;;;;;;;7.03;2.80;;;;;;;;;;4966291;28;20085;-72
2023/03/12 10:09:31;;;;;;;6.75;2.65;;;;;;;;;;4920534;28;20058;-72
2023/03/12 10:12:09;;;;;;;6.93;3.00;;;;;;;;;;4944040;28;20050;-73
2023/03/12 10:14:43;;;;;;;6.50;2.72;;;;;;;;;;4963669;28;20046;-72
2023/03/12 10:17:21;;;;;;;5.15;2.42;;;;;;;;;;4940048;28;20050;-72
2023/03/12 10:19:58;;;;;;;7.55;3.15;;;;;;;;;;4977862;28;20076;-72
2023/03/12 10:22:31;;;;;;;5.10;2.42;;;;;;;;;;4991239;28;20067;-72
2023/03/12 10:25:14;;;;;;;7.38;3.03;;;;;;;;;;5018661;28;20049;-72
2023/03/12 10:27:41;;;;;;;6.50;3.33;;;;;;;;;;5000658;28;20584;-72
2023/03/12 10:30:17;;;;;;;10.30;3.58;;;;;;;;;;5007502;28;20060;-72
2023/03/12 10:32:46;;;;;;;7.32;3.53;;;;;;;;;;4948271;28;20048;-71
2023/03/12 10:35:16;;;;;;;7.88;3.22;;;;;;;;;;4943026;28;20076;-71
2023/03/12 10:37:47;;;;;;;6.82;3.67;;;;;;;;;;4956981;28;20217;-72
2023/03/12 11:13:36;;;;;;;8.40;2.97;;;;;;;;;;5664658;22;9091858;-71
2023/03/12 11:16:21;;;;;;;9.38;3.92;;;;;;;;;;5994357;23;20090;-70
2023/03/12 11:18:58;;;;;;;10.38;4.05;;;;;;;;;;5945672;23;20052;-72
2023/03/12 11:21:38;;;;;;;11.27;4.55;;;;;;;;;;5907764;23;20032;-72
2023/03/12 11:32:21;;;;;;;;;;;;;;;;;;;;;
2023/03/12 11:42:53;;;;;;;9.52;4.18;;;;;;;;;;5029433;27;20395;-72
2023/03/12 11:45:31;;;;;;;11.07;4.00;;;;;;;;;;4930766;28;20439;-72
2023/03/12 11:48:10;;;;;;;10.70;4.47;;;;;;;;;;4937013;28;20071;-72
2023/03/12 11:54:52;;;;;;;13.27;3.83;;;;;;;;;;4994593;28;20417;-71
2023/03/12 11:57:57;;;;;;;12.52;3.70;;;;;;;;;;4998000;28;20150;-74
2023/03/12 12:47:37;;;;;;;10.05;2.38;;;;;;;;;;5027990;27;20425;-73
2023/03/12 14:03:36;;;;;;;15.75;2.38;;;;;;;;;;4715831;22;32282497;-81
2023/03/12 14:31:49;;;;;;;36.05;11.15;;;;;;;;;;4901361;27;1504760;-65
2023/03/12 14:34:21;;;;;;;35.83;16.55;;;;;;;;;;4941448;28;20601;-64
2023/03/12 14:37:02;;;;;;;48.78;17.00;;;;;;;;;;4974400;28;20170;-65
2023/03/12 14:42:42;;;;;;;40.60;13.95;;;;;;;;;;4872379;28;20113;-67
2023/03/12 14:45:35;;;;;;;34.65;14.05;;;;;;;;;;4931947;28;20057;-67
2023/03/12 14:51:00;;;;;;;;;;;;;;;;;;;;;
2023/03/12 14:53:33;;;;;;;29.73;10.27;;;;;;;;;;4930715;28;20090;-64
2023/03/12 14:56:34;;;;;;;24.67;9.18;;;;;;;;;;4928020;28;20059;-67
2023/03/12 14:59:46;;;;;;;22.52;7.53;;;;;;;;;;4913772;28;20098;-67
2023/03/12 15:02:17;;;;;;;24.02;7.35;;;;;;;;;;4905117;28;20051;-66
2023/03/12 15:07:59;;;;;;;21.90;6.32;;;;;;;;;;4918418;28;20054;-66
2023/03/12 15:10:27;;;;;;;19.83;6.43;;;;;;;;;;4948878;28;20051;-65
2023/03/12 15:12:59;;;;;;;23.23;6.43;;;;;;;;;;4916904;28;20051;-65
2023/03/12 15:15:29;;;;;;;24.38;7.03;;;;;;;;;;4919068;28;20153;-66
2023/03/12 15:18:13;;;;;;;24.83;6.72;;;;;;;;;;4931528;28;20111;-67
2023/03/12 16:04:04;;;;;;;14.00;3.08;;;;;;;;;;5849528;23;1803500;-65
2023/03/12 16:06:42;;;;;;;;;;;;;;;;;;;;;
2023/03/12 16:09:39;;;;;;;;;;;;;;;;;;;;;
2023/03/12 16:12:39;;;;;;;10.15;2.17;;;;;;;;;;5871148;23;20043;-64
2023/03/12 16:15:15;;;;;;;12.93;2.75;;;;;;;;;;5996528;23;20035;-63
2023/03/12 16:17:45;;;;;;;18.27;2.67;;;;;;;;;;5962740;23;20031;-67
2023/03/12 16:20:37;;;;;;;12.43;2.58;;;;;;;;;;5973828;23;20162;-66
2023/03/12 16:47:26;;;;;;;6.90;1.63;;;;;;;;;;6068374;23;20369;-65
2023/03/12 16:52:36;;;;;;;15.68;2.75;;;;;;;;;;6045794;23;20135;-63
2023/03/12 16:55:10;;;;;;;12.57;2.10;;;;;;;;;;6078327;23;20095;-64
2023/03/12 16:57:49;;;;;;;10.75;2.10;;;;;;;;;;6136064;23;20042;-63
2023/03/12 17:07:51;;;;;;;11.95;2.42;;;;;;;;;;6004739;23;20025;-66
2023/03/12 17:10:23;;;;;;;16.63;2.20;;;;;;;;;;6071478;23;20034;-63
2023/03/12 17:13:15;;;;;;;14.35;2.05;;;;;;;;;;6053879;23;20053;-63
2023/03/12 17:15:43;;;;;;;8.98;1.92;;;;;;;;;;6123182;23;20033;-65
2023/03/12 17:18:10;;;;;;;9.50;2.28;;;;;;;;;;6135612;23;20056;-66
2023/03/12 17:20:38;;;;;;;10.82;2.30;;;;;;;;;;6140232;23;20032;-65
2023/03/12 17:23:07;;;;;;;13.77;2.38;;;;;;;;;;6082366;23;20412;-66
2023/03/12 17:25:40;;;;;;;9.88;2.72;;;;;;;;;;6125171;23;20025;-65
2023/03/12 17:28:07;;;;;;;19.08;2.78;;;;;;;;;;6090281;23;20030;-65
2023/03/12 17:30:46;;;;;;;13.82;2.00;;;;;;;;;;6152795;23;20056;-65
2023/03/12 17:33:15;;;;;;;13.40;2.40;;;;;;;;;;6100884;23;20065;-65
2023/03/12 17:41:04;;;;;;;15.75;2.08;;;;;;;;;;6073143;23;20040;-65
2023/03/12 17:43:33;;;;;;;15.25;1.70;;;;;;;;;;6124946;23;20028;-65
2023/03/12 17:46:05;;;;;;;10.30;2.20;;;;;;;;;;6139030;23;20051;-65
2023/03/12 17:48:34;;;;;;;16.92;2.28;;;;;;;;;;6160357;23;20099;-65
2023/03/12 17:51:00;;;;;;;;;;;;;;;;;;6176461;23;20020;-63
2023/03/12 17:53:27;;;;;;;15.65;2.25;;;;;;;;;;6137084;23;19989;-63
2023/03/12 17:55:55;;;;;;;13.85;2.25;;;;;;;;;;6153074;23;20108;-65
2023/03/12 17:58:22;;;;;;;12.35;1.90;;;;;;;;;;6175623;23;20021;-64
2023/03/12 18:00:48;;;;;;;16.45;2.00;;;;;;;;;;6159944;23;20021;-65
2023/03/12 18:03:15;;;;;;;19.27;2.78;;;;;;;;;;6166483;23;20049;-64
2023/03/12 18:05:43;;;;;;;11.75;2.40;;;;;;;;;;6154286;23;20060;-66
2023/03/12 18:08:09;;;;;;;19.20;2.50;;;;;;;;;;6178520;23;20079;-64
2023/03/12 18:10:37;;;;;;;17.35;2.42;;;;;;;;;;6174332;23;20168;-64
2023/03/12 18:13:04;;;;;;;15.68;2.72;;;;;;;;;;6184940;23;20028;-65
2023/03/12 18:15:30;;;;;;;12.38;2.05;;;;;;;;;;6151941;23;20036;-65
2023/03/12 18:18:00;;;;;;;10.88;2.40;;;;;;;;;;6173621;23;20055;-66
2023/03/12 18:20:26;;;;;;;14.93;2.70;;;;;;;;;;6171569;23;20028;-62
2023/03/12 18:22:57;;;;;;;14.85;2.45;;;;;;;;;;6172234;23;20046;-66
2023/03/12 18:25:23;;;;;;;19.58;2.10;;;;;;;;;;6182634;23;20029;-63
2023/03/12 18:27:50;;;;;;;10.02;2.58;;;;;;;;;;6165150;23;20035;-66
2023/03/12 18:30:17;;;;;;;16.98;2.30;;;;;;;;;;6172842;23;20082;-67
2023/03/12 18:32:43;;;;;;;18.15;2.60;;;;;;;;;;6155572;23;20084;-65
2023/03/12 18:35:13;;;;;;;21.05;2.30;;;;;;;;;;6165936;23;20075;-64
2023/03/12 18:37:39;;;;;;;14.30;2.40;;;;;;;;;;6188725;23;20070;-64
2023/03/12 18:40:09;;;;;;;22.40;2.45;;;;;;;;;;6198539;23;20032;-66
2023/03/12 18:42:36;;;;;;;12.15;2.50;;;;;;;;;;6163306;23;20029;-66
2023/03/12 18:45:05;;;;;;;13.77;2.13;;;;;;;;;;6158821;23;20228;-65
2023/03/12 18:47:33;;;;;;;15.02;2.28;;;;;;;;;;6170355;23;20035;-64
2023/03/12 18:50:01;;;;;;;19.73;2.90;;;;;;;;;;6189873;23;20253;-65
2023/03/12 18:52:28;;;;;;;18.55;2.65;;;;;;;;;;6158987;23;20029;-64
2023/03/12 18:54:57;;;;;;;17.58;2.53;;;;;;;;;;6146066;23;20036;-65
2023/03/12 18:57:27;;;;;;;14.18;2.47;;;;;;;;;;6139239;23;20051;-64
2023/03/12 18:59:56;;;;;;;9.68;2.28;;;;;;;;;;6177464;23;20267;-64
2023/03/12 19:02:23;;;;;;;19.10;2.67;;;;;;;;;;6176918;23;20020;-64
2023/03/12 19:04:50;;;;;;;13.68;2.38;;;;;;;;;;6170052;23;20039;-67
2023/03/12 19:07:18;;;;;;;18.42;2.08;;;;;;;;;;6136410;23;20053;-63
2023/03/12 19:09:45;;;;;;;12.68;2.40;;;;;;;;;;6171478;23;20085;-66
2023/03/12 19:12:15;;;;;;;9.98;2.60;;;;;;;;;;6156354;23;20032;-66
2023/03/12 19:14:46;;;;;;;16.45;2.70;;;;;;;;;;6171028;23;20356;-66
2023/03/12 19:17:12;;;;;;;14.43;2.30;;;;;;;;;;6148632;23;20055;-66
2023/03/12 19:19:39;;;;;;;17.42;2.78;;;;;;;;;;6172183;23;20036;-65
2023/03/12 19:22:05;;;;;;;14.35;2.22;;;;;;;;;;6142226;23;20074;-65
2023/03/12 19:24:34;;;;;;;11.90;2.28;;;;;;;;;;6165006;23;20119;-66
2023/03/12 19:27:00;;;;;;;13.20;3.28;;;;;;;;;;6171560;23;20040;-64
2023/03/12 19:29:27;;;;;;;12.55;2.30;;;;;;;;;;6159278;23;20058;-66
2023/03/12 19:31:55;;;;;;;9.00;2.10;;;;;;;;;;6190509;23;20056;-66
2023/03/12 19:34:22;;;;;;;17.23;2.60;;;;;;;;;;6174217;23;20063;-65
2023/03/12 19:36:48;;;;;;;11.57;2.60;;;;;;;;;;6172653;23;20290;-64
2023/03/12 19:39:14;;;;;;;8.77;2.35;;;;;;;;;;6178037;23;20025;-65
2023/03/12 19:41:41;;;;;;;13.30;2.42;;;;;;;;;;6152102;23;20060;-65
2023/03/12 19:44:08;;;;;;;15.95;2.45;;;;;;;;;;6126500;23;20040;-65
2023/03/12 19:46:34;;;;;;;18.90;2.90;;;;;;;;;;6170662;23;20191;-64
2023/03/12 19:49:02;;;;;;;14.25;2.30;;;;;;;;;;6187157;23;20024;-67
2023/03/12 19:51:29;;;;;;;13.65;2.42;;;;;;;;;;6185380;23;20032;-64
2023/03/12 19:53:55;;;;;;;14.60;2.95;;;;;;;;;;6183796;23;20049;-66
2023/03/12 19:56:22;;;;;;;13.10;2.90;;;;;;;;;;6163836;23;20033;-67
2023/03/12 19:58:48;;;;;;;19.25;2.58;;;;;;;;;;6154602;23;20106;-66
2023/03/12 20:01:15;;;;;;;14.85;2.20;;;;;;;;;;6178842;23;20020;-67
2023/03/12 20:03:41;;;;;;;16.90;2.40;;;;;;;;;;6151805;23;20050;-66
2023/03/12 20:06:10;;;;;;;13.25;2.33;;;;;;;;;;6181877;23;20102;-63
2023/03/12 20:08:36;;;;;;;15.18;2.50;;;;;;;;;;6169982;23;20025;-64
2023/03/12 20:11:04;;;;;;;15.23;2.53;;;;;;;;;;6171791;23;20028;-65
2023/03/12 20:13:32;;;;;;;14.25;2.50;;;;;;;;;;6171213;23;20088;-66
2023/03/12 20:16:00;;;;;;;9.63;2.15;;;;;;;;;;6185348;23;20093;-66
2023/03/12 20:18:26;;;;;;;12.65;2.20;;;;;;;;;;6144584;23;20043;-64
2023/03/12 20:20:55;;;;;;;9.82;2.15;;;;;;;;;;6163979;23;20024;-66
2023/03/12 20:23:23;;;;;;;11.68;2.03;;;;;;;;;;6139396;23;21395;-66
2023/03/12 20:25:50;;;;;;;11.57;2.20;;;;;;;;;;6121562;23;20355;-67
2023/03/12 20:28:17;;;;;;;11.60;2.45;;;;;;;;;;6169439;23;20033;-64
2023/03/12 20:30:43;;;;;;;18.40;3.08;;;;;;;;;;6184807;23;20029;-66
2023/03/12 20:33:09;;;;;;;13.05;1.92;;;;;;;;;;6159407;23;20025;-66
2023/03/12 20:35:36;;;;;;;13.13;2.65;;;;;;;;;;6156404;23;20032;-64
2023/03/12 20:38:05;;;;;;;14.75;2.22;;;;;;;;;;6174001;23;20090;-65
2023/03/12 20:40:35;;;;;;;8.07;1.85;;;;;;;;;;6151825;23;20024;-66
2023/03/12 20:43:03;;;;;;;12.45;2.17;;;;;;;;;;6183625;23;20058;-64
2023/03/12 20:45:32;;;;;;;14.52;2.45;;;;;;;;;;6212205;23;20034;-66
2023/03/12 20:47:58;;;;;;;11.38;2.08;;;;;;;;;;6218308;23;20039;-67
2023/03/12 20:50:25;;;;;;;8.80;2.60;;;;;;;;;;6176111;23;20048;-63
2023/03/12 20:52:51;;;;;;;11.10;2.05;;;;;;;;;;6138819;23;20038;-65
2023/03/12 20:55:17;;;;;;;10.73;2.55;;;;;;;;;;6181338;23;20032;-65
2023/03/12 20:57:45;;;;;;;12.00;1.95;;;;;;;;;;6140820;23;20040;-67
2023/03/12 21:00:12;;;;;;;15.73;2.23;;;;;;;;;;6208981;23;20024;-64
2023/03/12 21:02:39;;;;;;;11.23;2.63;;;;;;;;;;6215268;23;20308;-64
2023/03/12 21:05:12;;;;;;;13.10;2.60;;;;;;;;;;6184832;23;20024;-65
2023/03/12 21:07:39;;;;;;;10.60;2.13;;;;;;;;;;6187481;23;20039;-67
2023/03/12 21:10:10;;;;;;;11.90;2.35;;;;;;;;;;6207006;23;20028;-64
2023/03/12 21:12:38;;;;;;;10.30;2.05;;;;;;;;;;6162126;23;20107;-63
2023/03/12 21:15:07;;;;;;;6.95;1.90;;;;;;;;;;6151550;23;20059;-66
2023/03/12 21:17:35;;;;;;;12.25;2.25;;;;;;;;;;6149794;23;20024;-64
2023/03/12 21:20:02;;;;;;;8.48;2.28;;;;;;;;;;6147718;23;20048;-67
2023/03/12 21:22:29;;;;;;;13.77;2.55;;;;;;;;;;6159187;23;20024;-66
2023/03/12 21:24:56;;;;;;;11.43;1.65;;;;;;;;;;6173183;23;20044;-65
2023/03/12 21:27:24;;;;;;;9.95;2.40;;;;;;;;;;6186554;23;20434;-64
2023/03/12 21:29:52;;;;;;;12.73;2.33;;;;;;;;;;6195247;23;20123;-66